Time;durP1;ratioP1;P1;durP2;ratioP2;P2;SDS_P1;SDS_P2;PMS_P1;PMS_P2;Temp;Humidity;BMP_temperature;BMP_pressure;BME280_temperature;BME280_humidity;BME280_pressure;Samples;Min_cycle;Max_cycle;Signal;HPM_P1;HPM_P2
2023/03/15 00:01:37;;;;;;;2.90;2.10;;;;;;;8.07;90.92;96694.80;109285;1253;58944;-78
2023/03/15 00:04:06;;;;;;;1.90;1.60;;;;;;;7.96;90.60;96706.15;107981;1254;61276;-78
2023/03/15 00:06:33;;;;;;;;;;;;;;;7.79;91.49;96713.77;106023;1260;61256;-80
2023/03/15 00:09:00;;;;;;;3.60;2.20;;;;;;;7.61;92.49;96724.25;106159;1254;61292;-80
2023/03/15 00:11:29;;;;;;;4.40;2.70;;;;;;;7.43;93.78;96732.81;106059;1254;74514;-79
2023/03/15 00:13:57;;;;;;;3.40;2.50;;;;;;;7.32;92.79;96737.92;108595;1254;70525;-80
2023/03/15 00:16:26;;;;;;;4.10;3.00;;;;;;;7.23;93.30;96741.05;106741;1254;72603;-81
2023/03/15 00:18:53;;;;;;;3.80;3.20;;;;;;;7.15;95.01;96744.45;106450;1254;61243;-81
2023/03/15 00:21:20;;;;;;;4.60;3.40;;;;;;;6.93;99.87;96756.98;106533;1254;61113;-81
2023/03/15 00:23:46;;;;;;;5.30;3.80;;;;;;;6.78;100.00;96766.14;106464;1254;74541;-79
2023/03/15 00:26:13;;;;;;;5.10;4.50;;;;;;;6.72;100.00;96775.45;106547;1258;59213;-79
2023/03/15 00:28:39;;;;;;;5.20;4.00;;;;;;;6.57;100.00;96782.77;106526;1254;61234;-79
2023/03/15 00:31:19;;;;;;;5.20;3.80;;;;;;;6.49;100.00;96797.00;106536;1254;61243;-79
2023/03/15 00:33:46;;;;;;;5.50;4.70;;;;;;;6.46;100.00;96810.58;106580;1254;61203;-80
2023/03/15 00:36:13;;;;;;;8.20;6.30;;;;;;;6.40;100.00;96824.02;106507;1254;73454;-81
2023/03/15 00:38:40;;;;;;;6.10;4.80;;;;;;;6.36;100.00;96830.37;106584;1254;69644;-81
2023/03/15 00:41:07;;;;;;;7.90;5.30;;;;;;;6.33;100.00;96845.19;106581;1255;72202;-81
2023/03/15 00:43:34;;;;;;;6.00;4.90;;;;;;;6.30;100.00;96855.33;106577;1254;61122;-81
2023/03/15 00:46:01;;;;;;;7.10;5.00;;;;;;;6.26;100.00;96877.69;106584;1254;61269;-80
2023/03/15 00:48:27;;;;;;;5.10;3.60;;;;;;;6.20;100.00;96908.66;106597;1254;74523;-79
2023/03/15 00:51:04;;;;;;;3.20;2.00;;;;;;;5.97;98.99;96934.54;106584;1254;61266;-79
2023/03/15 00:53:30;;;;;;;3.50;2.10;;;;;;;5.73;97.70;96946.27;108108;1254;71572;-79
2023/03/15 00:55:57;;;;;;;3.20;2.10;;;;;;;5.54;96.73;96962.56;109086;1254;59011;-81
2023/03/15 00:58:24;;;;;;;4.40;2.30;;;;;;;5.31;95.69;96973.09;106462;1254;61363;-81
2023/03/15 01:00:51;;;;;;;3.60;2.50;;;;;;;5.22;95.58;96986.05;106550;1254;74515;-79
2023/03/15 01:03:18;;;;;;;5.90;2.80;;;;;;;5.09;94.92;96988.48;106510;1254;69902;-80
2023/03/15 01:05:44;;;;;;;4.20;2.70;;;;;;;4.99;94.78;96991.27;106587;1254;61251;-79
2023/03/15 01:08:10;;;;;;;4.10;3.40;;;;;;;4.91;94.89;96988.86;106594;1254;61139;-80
2023/03/15 01:10:37;;;;;;;6.60;3.20;;;;;;;4.76;95.17;96996.19;106055;1254;61325;-80
2023/03/15 01:13:03;;;;;;;4.30;3.30;;;;;;;4.64;95.39;96999.83;106053;1257;61696;-81
2023/03/15 01:15:30;;;;;;;5.40;2.60;;;;;;;4.55;95.43;97008.30;106083;1259;61423;-81
2023/03/15 01:17:56;;;;;;;5.40;3.70;;;;;;;4.44;95.06;97009.92;106053;1254;61222;-78
2023/03/15 01:20:23;;;;;;;3.80;2.80;;;;;;;4.39;95.03;97019.52;106050;1254;61942;-78
2023/03/15 01:22:49;;;;;;;6.50;3.30;;;;;;;4.34;94.69;97027.55;106034;1259;61362;-79
2023/03/15 01:25:15;;;;;;;5.10;3.90;;;;;;;4.25;94.74;97046.35;106090;1258;61379;-80
2023/03/15 01:27:42;;;;;;;4.50;3.60;;;;;;;4.18;94.04;97046.59;106043;1259;59282;-80
2023/03/15 01:30:09;;;;;;;5.80;3.70;;;;;;;4.08;94.43;97057.70;106055;1254;61285;-79
2023/03/15 01:32:35;;;;;;;6.00;4.00;;;;;;;4.03;94.21;97061.70;106197;1254;61411;-79
2023/03/15 01:35:02;;;;;;;5.70;4.40;;;;;;;3.94;94.11;97062.08;106080;1256;61234;-79
2023/03/15 01:37:28;;;;;;;6.30;4.60;;;;;;;3.86;95.05;97057.54;106121;1254;62292;-79
2023/03/15 01:39:55;;;;;;;5.30;4.40;;;;;;;3.77;95.67;97058.39;106080;1254;61337;-79
2023/03/15 01:42:21;;;;;;;6.90;4.30;;;;;;;3.76;95.25;97062.09;106037;1258;61305;-79
2023/03/15 01:44:56;;;;;;;7.30;5.10;;;;;;;3.72;95.67;97062.59;106105;1254;61432;-80
2023/03/15 01:47:24;;;;;;;7.50;5.00;;;;;;;3.69;95.77;97060.55;106607;1258;61232;-80
2023/03/15 01:49:55;;;;;;;6.00;4.60;;;;;;;3.58;97.64;97072.30;105945;1254;182720;-80
2023/03/15 01:52:26;;;;;;;6.30;4.80;;;;;;;3.40;98.10;97073.15;107917;1254;70047;-78
2023/03/15 01:55:15;;;;;;;7.00;5.10;;;;;;;3.43;98.03;97075.90;105974;1254;72501;-79
2023/03/15 01:57:44;;;;;;;7.20;4.70;;;;;;;3.37;98.83;97081.00;106062;1254;61367;-80
2023/03/15 02:00:16;;;;;;;7.50;4.80;;;;;;;3.40;98.36;97079.72;106058;1256;61276;-79
2023/03/15 02:02:45;;;;;;;8.40;5.80;;;;;;;3.40;98.19;97075.06;109287;1254;73589;-80
2023/03/15 02:05:16;;;;;;;9.40;5.40;;;;;;;3.41;97.30;97077.65;106367;1254;71152;-80
2023/03/15 02:07:48;;;;;;;6.90;5.00;;;;;;;3.39;97.60;97074.58;106164;1257;71461;-79
2023/03/15 02:10:17;;;;;;;8.10;5.10;;;;;;;3.34;98.20;97083.82;106053;1254;61280;-79
2023/03/15 02:12:45;;;;;;;;;;;;;;;3.31;97.81;97085.50;106108;1257;61468;-80
2023/03/15 02:15:12;;;;;;;7.70;5.30;;;;;;;3.33;96.88;97091.51;106000;1254;75021;-79
2023/03/15 02:17:43;;;;;;;8.80;5.50;;;;;;;3.33;96.63;97092.75;105996;1254;71084;-80
2023/03/15 02:20:10;;;;;;;7.10;4.80;;;;;;;3.34;96.55;97095.83;105733;1256;72566;-81
2023/03/15 02:22:43;;;;;;;5.50;3.90;;;;;;;3.33;96.23;97097.20;106194;1256;61250;-79
2023/03/15 02:25:20;;;;;;;7.10;5.10;;;;;;;3.31;95.96;97096.73;107357;1256;61314;-79
2023/03/15 02:27:46;;;;;;;8.10;5.20;;;;;;;3.29;95.91;97092.81;107414;1256;74293;-79
2023/03/15 02:30:13;;;;;;;8.90;5.20;;;;;;;3.24;96.92;97093.05;106498;1260;61101;-79
2023/03/15 02:32:39;;;;;;;7.60;5.80;;;;;;;3.24;96.44;97088.27;106500;1255;61429;-80
2023/03/15 02:35:06;;;;;;;8.10;5.20;;;;;;;3.24;95.91;97088.17;106216;1261;61441;-80
2023/03/15 02:37:32;;;;;;;8.50;5.30;;;;;;;3.21;96.22;97091.31;106534;1256;61264;-80
2023/03/15 02:39:59;;;;;;;7.10;5.50;;;;;;;3.21;96.45;97099.45;106547;1256;61349;-81
2023/03/15 02:42:25;;;;;;;7.30;5.60;;;;;;;3.22;96.20;97104.00;106042;1256;61414;-79
2023/03/15 02:44:51;;;;;;;7.30;5.50;;;;;;;3.21;95.93;97110.95;105884;1261;61169;-80
2023/03/15 02:47:20;;;;;;;10.00;6.20;;;;;;;3.19;95.78;97115.02;106027;1256;61365;-80
2023/03/15 02:49:51;;;;;;;12.10;6.10;;;;;;;3.17;96.30;97120.77;106040;1256;61242;-80
2023/03/15 02:52:18;;;;;;;10.70;6.10;;;;;;;3.18;95.48;97122.89;109025;1256;74223;-81
2023/03/15 02:54:44;;;;;;;9.90;5.90;;;;;;;3.16;95.82;97121.55;109116;1254;71249;-81
2023/03/15 02:57:11;;;;;;;10.60;5.30;;;;;;;3.16;95.73;97125.05;109053;1254;59068;-79
2023/03/15 02:59:38;;;;;;;7.30;4.80;;;;;;;3.17;95.47;97127.64;106240;1258;61372;-80
2023/03/15 03:02:04;;;;;;;8.00;4.90;;;;;;;3.14;95.66;97134.81;106101;1254;61550;-79
2023/03/15 03:04:31;;;;;;;6.70;4.50;;;;;;;3.15;95.24;97140.71;106043;1258;73377;-79
2023/03/15 03:06:57;;;;;;;8.30;5.80;;;;;;;3.19;95.02;97144.63;106078;1254;61331;-79
2023/03/15 03:09:24;;;;;;;9.40;6.20;;;;;;;3.18;94.73;97150.89;106017;1258;61251;-80
2023/03/15 03:11:50;;;;;;;7.10;5.40;;;;;;;3.17;94.64;97155.91;106046;1254;61269;-80
2023/03/15 03:14:16;;;;;;;8.20;5.60;;;;;;;3.13;94.94;97152.11;106635;1254;61445;-79
2023/03/15 03:16:43;;;;;;;11.30;6.60;;;;;;;3.13;94.50;97152.64;106074;1254;61261;-80
2023/03/15 03:19:11;;;;;;;10.10;7.60;;;;;;;3.10;94.41;97149.36;106104;1258;61359;-78
2023/03/15 03:21:37;;;;;;;11.50;5.60;;;;;;;3.08;94.02;97152.93;108490;1255;71442;-79
2023/03/15 03:24:04;;;;;;;9.90;5.60;;;;;;;3.07;94.24;97153.92;106106;1254;61375;-80
2023/03/15 03:26:31;;;;;;;8.40;5.90;;;;;;;3.07;94.31;97160.20;106076;1254;61102;-80
2023/03/15 03:28:58;;;;;;;17.10;7.50;;;;;;;3.03;94.14;97171.34;109259;1254;73171;-79
2023/03/15 03:31:26;;;;;;;11.10;6.60;;;;;;;3.02;94.06;97183.86;107740;1253;70510;-80
2023/03/15 03:33:53;;;;;;;12.00;7.90;;;;;;;3.01;93.75;97189.41;106631;1253;71957;-80
2023/03/15 03:36:20;;;;;;;10.80;6.40;;;;;;;3.00;93.63;97193.73;106692;1257;61218;-78
2023/03/15 03:38:46;;;;;;;14.50;6.80;;;;;;;2.96;93.89;97199.31;106525;1253;60774;-80
2023/03/15 03:41:13;;;;;;;11.60;7.20;;;;;;;2.96;93.93;97197.70;106633;1253;59351;-82
2023/03/15 03:43:39;;;;;;;9.70;6.80;;;;;;;2.96;93.67;97203.55;106163;1253;70235;-79
2023/03/15 03:46:06;;;;;;;8.50;5.70;;;;;;;2.95;93.58;97201.98;106141;1257;61243;-78
2023/03/15 03:48:32;;;;;;;9.10;6.00;;;;;;;2.92;93.21;97202.45;106192;1257;61266;-78
2023/03/15 03:50:59;;;;;;;9.10;5.50;;;;;;;2.89;93.31;97206.95;106192;1253;61271;-78
2023/03/15 03:53:25;;;;;;;11.20;5.80;;;;;;;2.87;93.39;97206.91;106150;1253;61209;-81
2023/03/15 03:55:53;;;;;;;8.20;5.60;;;;;;;2.88;92.97;97214.46;106156;1258;61309;-81
2023/03/15 03:58:20;;;;;;;7.40;5.40;;;;;;;2.81;93.11;97218.73;106133;1258;70432;-78
2023/03/15 04:00:46;;;;;;;9.50;5.90;;;;;;;2.84;92.83;97228.94;106013;1254;61314;-78
2023/03/15 04:03:12;;;;;;;15.90;6.00;;;;;;;2.82;92.54;97227.30;106086;1254;61222;-78
2023/03/15 04:05:40;;;;;;;10.40;5.20;;;;;;;2.80;92.36;97221.88;106052;1254;61592;-79
2023/03/15 04:08:07;;;;;;;7.20;5.00;;;;;;;2.81;92.30;97217.64;105999;1256;70941;-78
2023/03/15 04:10:34;;;;;;;9.10;4.70;;;;;;;2.81;92.00;97214.88;106007;1254;61241;-80
2023/03/15 04:13:00;;;;;;;11.70;5.00;;;;;;;2.77;91.98;97214.14;106096;1254;61241;-79
2023/03/15 04:15:27;;;;;;;9.00;4.00;;;;;;;2.78;91.80;97215.97;106074;1255;61362;-78
2023/03/15 04:17:56;;;;;;;8.10;5.60;;;;;;;2.75;91.84;97219.52;106038;1254;61241;-78
2023/03/15 04:20:25;;;;;;;12.20;5.20;;;;;;;2.71;91.67;97218.19;106044;1255;69335;-79
2023/03/15 04:22:52;;;;;;;8.60;4.60;;;;;;;2.69;91.23;97221.90;106032;1254;72773;-78
2023/03/15 04:25:19;;;;;;;7.40;4.20;;;;;;;2.71;91.07;97218.23;106038;1255;61976;-79
2023/03/15 04:27:57;;;;;;;10.90;5.30;;;;;;;2.73;91.18;97219.05;105999;1254;61177;-78
2023/03/15 04:30:25;;;;;;;10.00;4.80;;;;;;;2.65;90.96;97223.08;106205;1254;73776;-80
2023/03/15 04:32:57;;;;;;;9.10;5.40;;;;;;;2.62;91.05;97224.04;106760;1254;70251;-79
2023/03/15 04:35:27;;;;;;;13.50;5.40;;;;;;;2.62;91.60;97222.23;106039;1254;71272;-79
2023/03/15 04:37:54;;;;;;;8.40;5.20;;;;;;;2.62;91.45;97222.50;106044;1254;61275;-78
2023/03/15 04:40:22;;;;;;;10.30;4.60;;;;;;;2.67;91.78;97229.31;106031;1254;61277;-80
2023/03/15 04:42:50;;;;;;;14.80;7.10;;;;;;;2.71;91.42;97233.52;106033;1258;74534;-80
2023/03/15 04:45:17;;;;;;;13.10;6.60;;;;;;;2.74;91.16;97233.14;105996;1254;70942;-78
2023/03/15 04:47:43;;;;;;;12.80;6.20;;;;;;;2.75;90.93;97233.48;106059;1254;72602;-80
2023/03/15 04:50:10;;;;;;;14.00;6.20;;;;;;;2.71;90.76;97231.71;106017;1255;61351;-79
2023/03/15 04:52:36;;;;;;;14.20;6.50;;;;;;;2.75;90.80;97243.23;106015;1258;61344;-80
2023/03/15 04:55:03;;;;;;;15.40;6.80;;;;;;;2.76;90.52;97241.36;106041;1253;61286;-79
2023/03/15 04:57:29;;;;;;;17.20;8.40;;;;;;;2.73;90.24;97245.53;106110;1257;61209;-79
2023/03/15 04:59:56;;;;;;;11.40;6.60;;;;;;;2.75;90.47;97246.97;106098;1254;61585;-78
2023/03/15 05:02:22;;;;;;;9.30;5.10;;;;;;;2.72;90.39;97252.00;106028;1253;61151;-79
2023/03/15 05:04:49;;;;;;;10.70;5.10;;;;;;;2.65;89.48;97250.95;107353;1255;61226;-79
2023/03/15 05:07:15;;;;;;;8.10;5.40;;;;;;;2.67;89.52;97253.77;106928;1253;61244;-79
2023/03/15 05:09:45;;;;;;;11.30;5.40;;;;;;;2.69;89.25;97262.08;107899;1254;71057;-80
2023/03/15 05:12:12;;;;;;;10.60;5.00;;;;;;;2.68;89.17;97266.84;106587;1253;72432;-80
2023/03/15 05:14:38;;;;;;;15.60;6.30;;;;;;;2.62;87.75;97269.69;107380;1257;61160;-80
2023/03/15 05:17:04;;;;;;;11.20;5.80;;;;;;;2.60;88.67;97270.09;106053;1253;61243;-80
2023/03/15 05:19:33;;;;;;;11.30;5.00;;;;;;;2.66;88.70;97273.13;106082;1255;61423;-79
2023/03/15 05:22:01;;;;;;;12.80;5.70;;;;;;;2.67;88.02;97281.69;106015;1254;71072;-79
2023/03/15 05:24:27;;;;;;;16.30;6.20;;;;;;;2.68;88.19;97286.09;106000;1254;72637;-80
2023/03/15 05:26:53;;;;;;;19.40;9.80;;;;;;;2.71;87.97;97293.13;106024;1258;61283;-79
2023/03/15 05:29:20;;;;;;;40.60;15.60;;;;;;;2.69;87.37;97298.73;106536;1254;61236;-80
2023/03/15 05:31:48;;;;;;;68.50;30.10;;;;;;;2.69;87.65;97303.16;106549;1254;73467;-79
2023/03/15 05:34:14;;;;;;;31.40;13.40;;;;;;;2.60;87.38;97302.13;106410;1254;71065;-80
2023/03/15 05:36:41;;;;;;;29.20;14.00;;;;;;;2.59;86.99;97301.33;106525;1254;61254;-81
2023/03/15 05:39:07;;;;;;;29.80;15.00;;;;;;;2.58;87.03;97308.31;106485;1254;61219;-79
2023/03/15 05:41:34;;;;;;;38.00;17.10;;;;;;;2.58;87.47;97309.76;106522;1254;62421;-79
2023/03/15 05:44:00;;;;;;;44.20;20.70;;;;;;;2.56;87.16;97311.18;106508;1254;61290;-79
2023/03/15 05:46:27;;;;;;;30.60;13.80;;;;;;;2.61;87.70;97319.64;106501;1254;70278;-79
2023/03/15 05:48:53;;;;;;;24.60;9.10;;;;;;;2.66;87.63;97325.96;106530;1258;61357;-79
2023/03/15 05:51:20;;;;;;;24.70;8.70;;;;;;;2.70;87.67;97330.20;106512;1254;61327;-79
2023/03/15 05:53:46;;;;;;;13.40;7.60;;;;;;;2.70;87.25;97332.77;106065;1254;61217;-79
2023/03/15 05:56:12;;;;;;;13.60;6.80;;;;;;;2.71;87.27;97337.83;106005;1258;61319;-79
2023/03/15 05:58:39;;;;;;;13.70;6.70;;;;;;;2.74;87.01;97340.75;106088;1254;61318;-80
2023/03/15 06:01:05;;;;;;;12.10;6.60;;;;;;;2.76;86.77;97340.35;105982;1254;61366;-79
2023/03/15 06:03:32;;;;;;;10.60;6.20;;;;;;;2.74;86.58;97346.21;106018;1254;61267;-79
2023/03/15 06:05:58;;;;;;;11.90;7.00;;;;;;;2.73;86.28;97359.73;106134;1253;61363;-80
2023/03/15 06:08:25;;;;;;;13.60;7.60;;;;;;;2.80;86.71;97369.30;106140;1255;61465;-81
2023/03/15 06:10:51;;;;;;;14.80;6.70;;;;;;;2.84;86.29;97376.86;106141;1257;61123;-79
2023/03/15 06:13:17;;;;;;;22.80;5.80;;;;;;;2.83;86.12;97376.80;106098;1257;62217;-80
2023/03/15 06:15:45;;;;;;;12.30;6.00;;;;;;;2.86;85.74;97377.38;106122;1256;61359;-80
2023/03/15 06:18:12;;;;;;;9.40;5.40;;;;;;;2.84;84.80;97383.33;106734;1254;61142;-79
2023/03/15 06:20:39;;;;;;;14.00;5.50;;;;;;;2.83;84.90;97385.73;106454;1257;74710;-79
2023/03/15 06:23:06;;;;;;;14.80;5.90;;;;;;;2.84;84.80;97393.61;106368;1255;72031;-79
2023/03/15 06:25:32;;;;;;;20.80;7.30;;;;;;;2.88;84.83;97399.55;106666;1253;62166;-80
2023/03/15 06:28:00;;;;;;;16.10;5.80;;;;;;;2.82;84.23;97402.83;106627;1257;61245;-80
2023/03/15 06:30:26;;;;;;;18.10;5.10;;;;;;;2.80;83.93;97405.54;106537;1254;61244;-79
2023/03/15 06:32:54;;;;;;;16.50;6.30;;;;;;;2.66;83.34;97406.23;106475;1254;74592;-80
2023/03/15 06:35:20;;;;;;;13.50;5.30;;;;;;;2.69;83.99;97405.36;106592;1253;69876;-78
2023/03/15 06:37:46;;;;;;;10.60;5.40;;;;;;;2.72;84.44;97407.24;106994;1253;61199;-79
2023/03/15 06:40:13;;;;;;;14.10;6.70;;;;;;;2.76;84.40;97413.66;106676;1254;60113;-80
2023/03/15 06:42:40;;;;;;;18.80;7.50;;;;;;;2.74;83.34;97422.26;106885;1254;61234;-80
2023/03/15 06:45:08;;;;;;;18.70;7.60;;;;;;;2.80;83.48;97423.73;106762;1258;74465;-79
2023/03/15 06:47:35;;;;;;;23.40;11.00;;;;;;;2.84;82.82;97422.61;106939;1254;71389;-81
2023/03/15 06:50:01;;;;;;;15.30;7.50;;;;;;;2.93;83.11;97423.94;108008;1254;59149;-81
2023/03/15 06:52:28;;;;;;;26.90;15.50;;;;;;;2.97;82.88;97424.48;106829;1256;61259;-81
2023/03/15 06:54:54;;;;;;;21.10;10.70;;;;;;;3.08;82.58;97424.20;106750;1254;61247;-79
2023/03/15 06:57:20;;;;;;;34.50;13.60;;;;;;;3.13;82.06;97428.07;106870;1253;61249;-80
2023/03/15 06:59:47;;;;;;;26.30;9.70;;;;;;;3.15;81.97;97430.30;107053;1254;61335;-79
2023/03/15 07:02:17;;;;;;;26.90;7.60;;;;;;;3.24;82.30;97431.71;107030;1256;61570;-79
2023/03/15 07:04:43;;;;;;;15.40;6.20;;;;;;;3.31;82.58;97430.52;107944;1254;61135;-81
2023/03/15 07:07:11;;;;;;;19.40;7.80;;;;;;;3.38;82.09;97434.52;107535;1256;61230;-80
2023/03/15 07:09:37;;;;;;;14.50;5.70;;;;;;;3.36;81.63;97436.54;106981;1254;74670;-79
2023/03/15 07:12:04;;;;;;;14.50;5.90;;;;;;;3.37;81.06;97440.72;106835;1254;60778;-80
2023/03/15 07:14:32;;;;;;;15.40;6.70;;;;;;;3.31;80.80;97436.36;106687;1254;72581;-78
2023/03/15 07:16:59;;;;;;;15.00;5.90;;;;;;;3.33;81.17;97440.46;106303;1254;61269;-81
2023/03/15 07:19:25;;;;;;;18.10;7.20;;;;;;;3.32;80.97;97443.55;106253;1253;61228;-80
2023/03/15 07:21:52;;;;;;;12.70;5.90;;;;;;;3.36;81.36;97444.27;106214;1254;61247;-80
2023/03/15 07:24:18;;;;;;;12.10;6.70;;;;;;;3.35;81.17;97447.39;106302;1258;61438;-81
2023/03/15 07:26:44;;;;;;;15.90;7.20;;;;;;;3.15;80.74;97451.62;106933;1254;60875;-79
2023/03/15 07:29:11;;;;;;;15.30;7.70;;;;;;;3.04;81.01;97448.30;106907;1253;61357;-79
2023/03/15 07:31:37;;;;;;;14.20;7.50;;;;;;;3.00;80.96;97452.84;106930;1254;59818;-81
2023/03/15 07:34:04;;;;;;;13.50;7.10;;;;;;;3.01;81.55;97452.39;107195;1258;61218;-78
2023/03/15 07:36:31;;;;;;;17.30;7.50;;;;;;;3.00;82.20;97461.14;106217;1254;61317;-78
2023/03/15 07:38:57;;;;;;;21.00;7.20;;;;;;;3.16;82.02;97461.16;106875;1257;61161;-81
2023/03/15 07:41:24;;;;;;;14.30;7.70;;;;;;;3.30;81.92;97466.71;106800;1254;61247;-78
2023/03/15 07:43:50;;;;;;;16.50;10.20;;;;;;;3.35;81.56;97466.30;106186;1254;61224;-80
2023/03/15 07:46:17;;;;;;;16.60;8.60;;;;;;;3.30;80.02;97470.95;106624;1260;61360;-81
2023/03/15 07:48:43;;;;;;;13.20;7.00;;;;;;;3.24;80.08;97478.31;107045;1253;61260;-78
2023/03/15 07:51:09;;;;;;;17.30;7.30;;;;;;;3.28;80.25;97482.38;106350;1254;61347;-81
2023/03/15 07:53:36;;;;;;;13.20;6.30;;;;;;;3.23;79.90;97489.05;106363;1253;61206;-80
2023/03/15 07:56:03;;;;;;;12.80;6.20;;;;;;;3.24;79.78;97489.98;106439;1257;61261;-79
2023/03/15 07:58:29;;;;;;;15.10;7.50;;;;;;;3.20;79.40;97493.30;106382;1254;61271;-79
2023/03/15 08:00:56;;;;;;;21.60;8.20;;;;;;;3.14;79.03;97493.09;106387;1254;70324;-80
2023/03/15 08:03:23;;;;;;;19.70;7.20;;;;;;;3.12;79.55;97499.27;107040;1256;61217;-80
2023/03/15 08:05:50;;;;;;;13.30;8.40;;;;;;;3.13;79.71;97504.71;106956;1254;61328;-77
2023/03/15 08:08:16;;;;;;;10.80;6.20;;;;;;;3.35;80.25;97504.23;106399;1260;61085;-80
2023/03/15 08:10:43;;;;;;;20.60;8.20;;;;;;;3.45;79.54;97507.91;106366;1257;62208;-79
2023/03/15 08:13:10;;;;;;;17.60;9.10;;;;;;;3.57;79.41;97512.52;106270;1253;70079;-80
2023/03/15 08:15:36;;;;;;;14.60;8.20;;;;;;;3.78;78.88;97515.06;106206;1254;72236;-80
2023/03/15 08:18:03;;;;;;;15.10;8.60;;;;;;;4.01;77.95;97521.58;106250;1258;61264;-79
2023/03/15 08:20:32;;;;;;;14.60;6.90;;;;;;;4.04;77.47;97524.27;106162;1254;61257;-81
2023/03/15 08:23:00;;;;;;;15.80;7.20;;;;;;;3.77;76.96;97524.85;106630;1254;74642;-78
2023/03/15 08:25:27;;;;;;;16.70;7.40;;;;;;;3.63;77.79;97529.38;106598;1254;69902;-79
2023/03/15 08:27:53;;;;;;;16.30;7.20;;;;;;;3.49;78.21;97530.58;106168;1258;61253;-80
2023/03/15 08:30:20;;;;;;;20.90;6.80;;;;;;;3.58;78.04;97529.35;106182;1258;62247;-81
2023/03/15 08:32:50;;;;;;;16.00;7.60;;;;;;;3.73;77.86;97527.89;106328;1254;61584;-78
2023/03/15 08:35:19;;;;;;;25.60;7.50;;;;;;;3.93;78.01;97527.47;106840;1253;74561;-82
2023/03/15 08:37:46;;;;;;;;;;;;;;;4.16;77.87;97527.91;107173;1256;70968;-77
2023/03/15 08:40:17;;;;;;;18.40;6.50;;;;;;;4.08;75.20;97528.46;106290;1257;71460;-81
2023/03/15 08:42:44;;;;;;;13.40;5.80;;;;;;;4.15;74.87;97530.54;106729;1256;61251;-78
2023/03/15 08:45:10;;;;;;;14.40;5.80;;;;;;;3.87;74.11;97533.11;106882;1254;59331;-80
2023/03/15 08:47:37;;;;;;;12.00;5.70;;;;;;;3.89;75.38;97538.90;107079;1254;73276;-79
2023/03/15 08:50:05;;;;;;;15.60;6.60;;;;;;;3.78;75.82;97540.83;106844;1254;61254;-79
2023/03/15 08:52:32;;;;;;;13.10;5.30;;;;;;;3.79;75.08;97547.98;107471;1254;72542;-80
2023/03/15 08:54:58;;;;;;;12.20;5.70;;;;;;;3.79;74.58;97550.94;106853;1253;59457;-79
2023/03/15 08:57:25;;;;;;;13.60;5.60;;;;;;;3.83;74.36;97554.10;107080;1253;61160;-80
2023/03/15 08:59:51;;;;;;;17.20;7.60;;;;;;;3.94;73.86;97556.23;106892;1256;73384;-79
2023/03/15 09:02:18;;;;;;;12.90;5.50;;;;;;;4.02;73.47;97552.20;107047;1254;69909;-78
2023/03/15 09:04:44;;;;;;;11.10;6.20;;;;;;;4.08;72.91;97558.88;106901;1254;61253;-81
2023/03/15 09:07:11;;;;;;;11.50;5.90;;;;;;;4.20;73.24;97559.13;106260;1253;61152;-78
2023/03/15 09:09:37;;;;;;;14.00;5.30;;;;;;;4.34;73.22;97564.34;106421;1255;61916;-79
2023/03/15 09:12:04;;;;;;;13.20;6.30;;;;;;;4.18;71.04;97571.42;106279;1253;61209;-78
2023/03/15 09:14:30;;;;;;;17.10;5.60;;;;;;;4.11;71.47;97571.25;106820;1253;61277;-78
2023/03/15 09:16:57;;;;;;;15.00;6.30;;;;;;;3.96;71.72;97570.20;109238;1254;58904;-80
2023/03/15 09:19:23;;;;;;;19.20;6.60;;;;;;;3.94;72.15;97571.88;106560;1260;61440;-80
2023/03/15 09:21:50;;;;;;;28.60;10.70;;;;;;;4.00;72.23;97576.84;106228;1254;59254;-79
2023/03/15 09:24:17;;;;;;;18.50;6.70;;;;;;;3.88;71.12;97578.27;106210;1258;61347;-78
2023/03/15 09:26:43;;;;;;;17.70;6.00;;;;;;;4.07;71.75;97575.54;106116;1256;69796;-78
2023/03/15 09:29:10;;;;;;;16.10;4.90;;;;;;;4.12;71.34;97578.08;106156;1257;61334;-81
2023/03/15 09:31:36;;;;;;;10.90;5.70;;;;;;;4.22;71.94;97580.02;106127;1255;61348;-77
2023/03/15 09:34:02;;;;;;;13.10;6.20;;;;;;;4.18;71.23;97584.21;106091;1256;61786;-80
2023/03/15 09:36:30;;;;;;;13.10;5.50;;;;;;;4.35;71.88;97584.36;106264;1254;61333;-78
2023/03/15 09:38:56;;;;;;;14.20;5.40;;;;;;;4.46;71.33;97586.86;106307;1256;71110;-80
2023/03/15 09:41:43;;;;;;;15.80;5.80;;;;;;;4.36;70.02;97594.19;106303;1254;61346;-80
2023/03/15 09:44:33;;;;;;;14.20;4.10;;;;;;;4.28;69.05;97595.59;106256;1258;61131;-78
2023/03/15 09:47:05;;;;;;;18.40;4.60;;;;;;;4.27;68.09;97591.08;106326;1254;61225;-80
2023/03/15 09:49:52;;;;;;;8.90;4.20;;;;;;;4.26;67.86;97596.33;106318;1258;74560;-78
2023/03/15 09:52:46;;;;;;;13.90;3.70;;;;;;;4.29;68.09;97597.16;106910;1253;70086;-81
2023/03/15 09:55:19;;;;;;;12.10;3.30;;;;;;;4.26;67.64;97596.54;106820;1254;71474;-79
2023/03/15 09:58:02;;;;;;;14.40;4.10;;;;;;;4.43;68.20;97599.59;107228;1256;61214;-79
2023/03/15 10:00:40;;;;;;;10.10;3.60;;;;;;;4.39;66.82;97601.95;106893;1253;61333;-80
2023/03/15 10:03:38;;;;;;;11.20;3.60;;;;;;;4.27;65.55;97609.59;106617;1261;73414;-81
2023/03/15 10:06:09;;;;;;;13.40;3.90;;;;;;;4.18;64.88;97613.18;106598;1258;70034;-81
2023/03/15 10:08:36;;;;;;;9.10;3.60;;;;;;;4.29;65.20;97616.48;106783;1254;72683;-81
2023/03/15 10:11:10;;;;;;;9.00;3.80;;;;;;;4.31;65.34;97614.45;106624;1255;61264;-79
2023/03/15 10:13:55;;;;;;;7.00;3.60;;;;;;;4.34;65.57;97614.06;106557;1257;61214;-81
2023/03/15 10:16:21;;;;;;;8.70;3.60;;;;;;;4.09;66.29;97618.79;106532;1255;73384;-81
2023/03/15 10:19:13;;;;;;;9.30;4.80;;;;;;;4.35;66.30;97625.61;106535;1256;62149;-79
2023/03/15 10:21:42;;;;;;;12.70;3.80;;;;;;;4.32;64.63;97629.42;106582;1254;72528;-79
2023/03/15 10:24:17;;;;;;;9.10;3.20;;;;;;;4.35;64.50;97629.38;106382;1253;61318;-79
2023/03/15 10:26:43;;;;;;;9.40;2.90;;;;;;;4.51;64.61;97632.16;106629;1255;61189;-79
2023/03/15 10:29:15;;;;;;;22.80;5.40;;;;;;;4.31;63.92;97638.29;106645;1253;61248;-81
2023/03/15 10:31:43;;;;;;;9.40;3.50;;;;;;;4.34;64.52;97639.91;106808;1253;71412;-80
2023/03/15 10:34:10;;;;;;;14.10;4.30;;;;;;;4.40;64.06;97638.34;106695;1256;71691;-80
2023/03/15 10:36:36;;;;;;;14.90;4.90;;;;;;;4.32;64.83;97637.42;108161;1256;61175;-80
2023/03/15 10:39:04;;;;;;;12.10;4.30;;;;;;;4.43;64.74;97649.02;109224;1254;59056;-77
2023/03/15 10:41:39;;;;;;;12.00;4.80;;;;;;;4.09;63.41;97649.20;109262;1254;73349;-78
2023/03/15 10:44:11;;;;;;;8.60;4.00;;;;;;;4.04;64.80;97644.14;106717;1258;70884;-78
2023/03/15 10:46:37;;;;;;;14.70;3.70;;;;;;;4.00;65.76;97648.20;106015;1256;71397;-80
2023/03/15 10:49:08;;;;;;;11.10;3.90;;;;;;;4.16;65.87;97648.98;106040;1260;60035;-81
2023/03/15 10:51:40;;;;;;;7.90;3.10;;;;;;;4.38;65.47;97651.79;106436;1255;61333;-78
2023/03/15 10:54:17;;;;;;;12.20;4.80;;;;;;;4.62;65.27;97650.21;106131;1253;74742;-78
2023/03/15 10:57:13;;;;;;;8.80;3.30;;;;;;;4.78;64.29;97659.74;106130;1259;69804;-80
2023/03/15 11:00:04;;;;;;;10.20;4.30;;;;;;;4.83;63.29;97658.40;106080;1258;71505;-78
2023/03/15 11:02:32;;;;;;;10.20;3.50;;;;;;;4.74;62.32;97660.29;106107;1256;61255;-78
2023/03/15 11:05:01;;;;;;;9.90;3.20;;;;;;;4.73;62.47;97661.67;106028;1255;61267;-80
2023/03/15 11:07:27;;;;;;;7.90;3.20;;;;;;;4.71;61.96;97662.55;106073;1254;74519;-80
2023/03/15 11:09:58;;;;;;;10.60;3.60;;;;;;;4.82;62.49;97660.15;106146;1258;61254;-78
2023/03/15 11:12:26;;;;;;;9.60;3.50;;;;;;;4.96;62.37;97659.99;106033;1259;72460;-79
2023/03/15 11:15:15;;;;;;;7.20;2.80;;;;;;;4.87;61.93;97656.51;106183;1255;61334;-81
2023/03/15 11:17:44;;;;;;;7.80;3.60;;;;;;;4.79;61.65;97650.14;106085;1256;61169;-80
2023/03/15 11:20:35;;;;;;;7.40;3.30;;;;;;;4.79;62.09;97651.52;109300;1255;73616;-80
2023/03/15 11:23:17;;;;;;;7.40;3.40;;;;;;;4.52;60.97;97651.48;108966;1253;70060;-78
2023/03/15 11:25:43;;;;;;;12.30;4.00;;;;;;;4.62;61.35;97654.93;109060;1256;71710;-80
2023/03/15 11:28:14;;;;;;;9.80;3.60;;;;;;;4.61;61.30;97654.59;109135;1254;58913;-79
2023/03/15 11:30:41;;;;;;;8.80;3.30;;;;;;;4.65;61.92;97662.53;109057;1253;60796;-78
2023/03/15 11:33:08;;;;;;;9.00;3.40;;;;;;;4.48;61.47;97666.14;107068;1253;61442;-78
2023/03/15 11:35:46;;;;;;;10.50;3.50;;;;;;;4.29;61.54;97662.61;106465;1256;69964;-80